createdAt,value
2023-01-08T00:01:24.885Z,3.20
2023-01-08T00:03:52.266Z,3.28
2023-01-08T00:06:23.419Z,3.20
2023-01-08T00:08:50.720Z,3.10
2023-01-08T00:11:17.845Z,3.00
2023-01-08T00:13:45.007Z,3.00
2023-01-08T00:16:16.572Z,3.15
2023-01-08T00:18:46.353Z,3.10
2023-01-08T00:21:14.309Z,3.08
2023-01-08T00:23:41.464Z,3.40
2023-01-08T00:26:10.826Z,3.83
2023-01-08T00:28:38.334Z,3.45
2023-01-08T00:31:11.426Z,5.25
2023-01-08T00:33:39.591Z,4.22
2023-01-08T00:36:16.131Z,2.97
2023-01-08T00:38:44.610Z,3.20
2023-01-08T00:41:14.411Z,3.15
2023-01-08T00:43:41.721Z,3.30
2023-01-08T00:46:09.553Z,3.13
2023-01-08T00:48:39.821Z,3.20
2023-01-08T00:51:09.134Z,3.50
2023-01-08T00:53:37.996Z,2.95
2023-01-08T00:56:09.606Z,3.15
2023-01-08T00:58:36.866Z,3.40
2023-01-08T01:01:12.175Z,3.60
2023-01-08T01:03:40.128Z,3.50
2023-01-08T01:06:08.236Z,3.60
2023-01-08T01:08:35.523Z,3.30
2023-01-08T01:11:16.659Z,3.35
2023-01-08T01:13:43.798Z,3.13
2023-01-08T01:16:11.034Z,3.35
2023-01-08T01:18:38.389Z,3.30
2023-01-08T01:21:25.334Z,3.60
2023-01-08T01:24:02.040Z,3.35
2023-01-08T01:26:30.141Z,4.90
2023-01-08T01:28:58.277Z,7.25
2023-01-08T01:31:28.697Z,3.60
2023-01-08T01:33:56.475Z,3.28
2023-01-08T01:36:24.870Z,3.45
2023-01-08T01:38:55.200Z,3.28
2023-01-08T01:41:33.771Z,3.60
2023-01-08T01:44:43.234Z,3.58
2023-01-08T01:47:30.381Z,3.25
2023-01-08T01:50:22.083Z,3.78
2023-01-08T01:52:59.857Z,3.42
2023-01-08T01:55:28.258Z,3.58
2023-01-08T01:58:08.403Z,3.55
2023-01-08T02:00:35.810Z,3.58
2023-01-08T02:03:05.968Z,4.22
2023-01-08T02:05:51.122Z,3.70
2023-01-08T02:08:37.987Z,3.50
2023-01-08T02:11:22.154Z,3.65
2023-01-08T02:14:04.726Z,3.47
2023-01-08T02:16:54.610Z,3.63
2023-01-08T02:19:49.794Z,3.70
2023-01-08T02:23:08.083Z,3.90
2023-01-08T02:26:07.166Z,3.70
2023-01-08T02:28:43.847Z,3.55
2023-01-08T02:31:13.139Z,3.50
2023-01-08T02:33:40.837Z,3.78
2023-01-08T02:36:44.832Z,3.70
2023-01-08T02:39:48.164Z,4.03
2023-01-08T02:42:40.444Z,3.88
2023-01-08T02:45:35.283Z,3.85
2023-01-08T02:48:31.367Z,4.28
2023-01-08T02:51:13.807Z,3.45
2023-01-08T02:53:49.855Z,4.10
2023-01-08T02:56:24.703Z,4.03
2023-01-08T02:58:54.692Z,4.00
2023-01-08T03:01:24.909Z,3.80
2023-01-08T03:04:02.327Z,4.00
2023-01-08T03:06:31.282Z,3.92
2023-01-08T03:09:00.421Z,3.42
2023-01-08T03:11:40.136Z,4.03
2023-01-08T03:14:19.006Z,3.75
2023-01-08T03:16:55.911Z,3.85
2023-01-08T03:19:32.879Z,5.75
2023-01-08T03:22:03.262Z,5.68
2023-01-08T03:24:37.336Z,3.88
2023-01-08T03:27:10.502Z,4.15
2023-01-08T03:29:40.644Z,3.92
2023-01-08T03:32:15.269Z,4.22
2023-01-08T03:34:47.116Z,3.95
2023-01-08T03:37:20.009Z,3.92
2023-01-08T03:39:58.911Z,3.70
2023-01-08T03:42:30.482Z,4.28
2023-01-08T03:45:00.000Z,3.50
2023-01-08T03:47:31.640Z,4.10
2023-01-08T03:50:03.904Z,3.90
2023-01-08T03:52:32.915Z,3.90
2023-01-08T03:55:00.073Z,3.97
2023-01-08T03:57:27.344Z,3.70
2023-01-08T03:59:54.664Z,4.10
2023-01-08T04:02:22.019Z,3.67
2023-01-08T04:04:49.255Z,3.92
2023-01-08T04:07:16.591Z,3.85
2023-01-08T04:09:43.832Z,4.22
2023-01-08T04:12:10.961Z,3.97
2023-01-08T04:14:38.088Z,4.32
2023-01-08T04:17:05.191Z,3.92
2023-01-08T04:19:32.366Z,4.00
2023-01-08T04:21:59.472Z,4.18
2023-01-08T04:24:26.606Z,3.60
2023-01-08T04:26:53.733Z,3.90
2023-01-08T04:29:20.959Z,3.92
2023-01-08T04:31:48.188Z,3.63
2023-01-08T04:34:15.328Z,4.30
2023-01-08T04:36:42.447Z,3.70
2023-01-08T04:39:11.184Z,4.07
2023-01-08T04:41:38.371Z,3.92
2023-01-08T04:44:05.607Z,3.65
2023-01-08T04:46:32.813Z,4.03
2023-01-08T04:48:59.985Z,3.88
2023-01-08T04:51:27.077Z,4.10
2023-01-08T04:53:54.210Z,4.03
2023-01-08T04:56:21.309Z,3.83
2023-01-08T04:58:48.422Z,4.07
2023-01-08T05:01:23.179Z,4.15
2023-01-08T05:03:56.026Z,4.10
2023-01-08T05:06:24.125Z,4.13
2023-01-08T05:08:51.292Z,4.03
2023-01-08T05:11:18.400Z,5.00
2023-01-08T05:13:48.996Z,8.70
2023-01-08T05:16:16.777Z,6.82
2023-01-08T05:18:45.658Z,4.30
2023-01-08T05:21:13.811Z,3.88
2023-01-08T05:23:47.747Z,3.90
2023-01-08T05:26:16.330Z,4.15
2023-01-08T05:28:43.688Z,4.10
2023-01-08T05:31:12.077Z,4.72
2023-01-08T05:33:40.366Z,4.82
2023-01-08T05:36:09.762Z,4.47
2023-01-08T05:38:37.578Z,4.28
2023-01-08T05:41:06.546Z,4.35
2023-01-08T05:43:34.402Z,3.83
2023-01-08T05:46:03.567Z,4.10
2023-01-08T05:48:34.637Z,3.92
2023-01-08T05:51:03.462Z,3.92
2023-01-08T05:53:32.842Z,4.45
2023-01-08T05:56:09.002Z,4.35
2023-01-08T05:58:36.916Z,4.07
2023-01-08T06:01:08.470Z,4.03
2023-01-08T06:03:36.556Z,3.95
2023-01-08T06:06:06.686Z,3.95
2023-01-08T06:08:34.637Z,3.90
2023-01-08T06:11:06.231Z,3.90
2023-01-08T06:13:35.201Z,3.90
2023-01-08T06:16:02.533Z,3.95
2023-01-08T06:18:30.424Z,3.47
2023-01-08T06:20:57.551Z,4.03
2023-01-08T06:23:24.697Z,6.80
2023-01-08T06:26:01.737Z,7.60
2023-01-08T06:28:28.899Z,4.40
2023-01-08T06:31:01.144Z,4.10
2023-01-08T06:33:30.002Z,4.00
2023-01-08T06:36:04.993Z,4.50
2023-01-08T06:38:34.020Z,4.30
2023-01-08T06:41:04.993Z,4.90
2023-01-08T06:43:34.205Z,4.85
2023-01-08T06:46:09.149Z,4.70
2023-01-08T06:48:37.542Z,4.72
2023-01-08T06:51:05.451Z,4.22
2023-01-08T06:53:32.725Z,4.32
2023-01-08T06:55:59.864Z,4.53
2023-01-08T06:58:28.113Z,4.93
2023-01-08T07:00:55.291Z,4.30
2023-01-08T07:03:22.466Z,4.75
2023-01-08T07:05:50.726Z,4.63
2023-01-08T07:08:19.104Z,4.68
2023-01-08T07:10:46.492Z,4.80
2023-01-08T07:13:13.982Z,4.88
2023-01-08T07:15:42.787Z,4.50
2023-01-08T07:18:12.106Z,4.53
2023-01-08T07:20:39.522Z,4.88
2023-01-08T07:23:11.955Z,4.78
2023-01-08T07:25:39.083Z,5.20
2023-01-08T07:28:06.417Z,4.70
2023-01-08T07:30:33.559Z,4.88
2023-01-08T07:33:01.946Z,4.47
2023-01-08T07:35:29.796Z,4.90
2023-01-08T07:37:57.134Z,4.70
2023-01-08T07:40:24.257Z,4.70
2023-01-08T07:43:04.532Z,4.50
2023-01-08T07:45:31.745Z,5.00
2023-01-08T07:48:00.278Z,5.47
2023-01-08T07:50:27.989Z,5.30
2023-01-08T07:53:00.762Z,5.50
2023-01-08T07:55:29.955Z,4.75
2023-01-08T07:57:57.100Z,5.32
2023-01-08T08:00:24.329Z,5.30
2023-01-08T08:02:51.534Z,5.07
2023-01-08T08:05:18.894Z,5.30
2023-01-08T08:07:46.052Z,5.13
2023-01-08T08:10:13.400Z,5.40
2023-01-08T08:12:40.498Z,6.38
2023-01-08T08:15:08.573Z,5.63
2023-01-08T08:17:35.727Z,5.70
2023-01-08T08:20:03.037Z,5.80
2023-01-08T08:22:30.400Z,6.13
2023-01-08T08:24:57.530Z,6.18
2023-01-08T08:27:24.718Z,5.90
2023-01-08T08:29:51.832Z,5.55
2023-01-08T08:32:19.002Z,7.18
2023-01-08T08:34:46.119Z,5.88
2023-01-08T08:37:13.249Z,6.32
2023-01-08T08:39:40.352Z,6.63
2023-01-08T08:42:07.476Z,7.15
2023-01-08T08:44:34.652Z,6.18
2023-01-08T08:47:01.834Z,6.13
2023-01-08T08:49:29.016Z,6.53
2023-01-08T08:51:56.176Z,5.93
2023-01-08T08:54:23.326Z,6.22
2023-01-08T08:56:50.454Z,6.53
2023-01-08T08:59:17.576Z,6.72
2023-01-08T09:01:44.754Z,6.72
2023-01-08T09:04:12.012Z,7.60
2023-01-08T09:06:39.107Z,7.10
2023-01-08T09:09:06.393Z,7.40
2023-01-08T09:11:33.580Z,8.50
2023-01-08T09:14:00.703Z,9.90
2023-01-08T09:16:27.850Z,7.40
2023-01-08T09:18:55.783Z,8.07
2023-01-08T09:21:22.915Z,10.82
2023-01-08T09:23:50.309Z,9.95
2023-01-08T09:26:17.454Z,10.82
2023-01-08T09:28:44.636Z,9.52
2023-01-08T09:31:11.896Z,8.20
2023-01-08T09:33:39.273Z,7.00
2023-01-08T09:36:11.321Z,7.60
2023-01-08T09:38:38.452Z,7.37
2023-01-08T09:41:19.755Z,7.95
2023-01-08T09:43:52.369Z,7.35
2023-01-08T09:46:24.501Z,6.70
2023-01-08T09:48:55.253Z,7.60
2023-01-08T09:51:23.115Z,7.72
2023-01-08T09:53:57.355Z,8.02
2023-01-08T09:56:24.470Z,7.45
2023-01-08T09:58:55.485Z,8.23
2023-01-08T10:01:39.349Z,6.65
2023-01-08T10:04:21.562Z,7.50
2023-01-08T10:07:05.965Z,5.60
2023-01-08T10:09:33.712Z,6.03
2023-01-08T10:12:05.256Z,5.68
2023-01-08T10:14:39.686Z,4.85
2023-01-08T10:17:40.406Z,5.10
2023-01-08T10:20:22.515Z,4.93
2023-01-08T10:22:54.133Z,4.93
2023-01-08T10:25:27.748Z,4.50
2023-01-08T10:28:00.245Z,4.70
2023-01-08T10:30:30.461Z,4.72
2023-01-08T10:33:05.914Z,5.03
2023-01-08T10:35:40.962Z,4.47
2023-01-08T10:38:35.703Z,4.55
2023-01-08T10:41:12.964Z,5.53
2023-01-08T10:44:16.466Z,4.38
2023-01-08T10:46:48.238Z,5.00
2023-01-08T10:49:28.583Z,4.63
2023-01-08T10:51:56.439Z,3.72
2023-01-08T10:54:32.812Z,4.32
2023-01-08T10:57:02.403Z,4.50
2023-01-08T10:59:29.797Z,4.20
2023-01-08T11:01:58.335Z,3.88
2023-01-08T11:04:36.026Z,3.90
2023-01-08T11:07:07.331Z,3.33
2023-01-08T11:09:45.871Z,3.30
2023-01-08T11:12:39.025Z,2.95
2023-01-08T11:15:26.457Z,3.80
2023-01-08T11:17:53.681Z,3.75
2023-01-08T11:20:28.929Z,3.55
2023-01-08T11:23:25.586Z,3.10
2023-01-08T11:26:08.676Z,2.83
2023-01-08T11:29:15.089Z,2.40
2023-01-08T11:32:09.701Z,2.42
2023-01-08T11:35:26.860Z,2.05
2023-01-08T11:38:01.795Z,2.20
2023-01-08T11:40:42.238Z,2.50
2023-01-08T11:43:27.330Z,3.00
2023-01-08T11:46:27.638Z,3.95
2023-01-08T11:49:29.279Z,4.43
2023-01-08T11:52:17.270Z,3.33
2023-01-08T11:55:35.426Z,2.45
2023-01-08T11:58:55.425Z,2.67
2023-01-08T12:02:06.437Z,2.10
2023-01-08T12:05:21.698Z,3.20
2023-01-08T12:08:01.026Z,4.80
2023-01-08T12:10:59.323Z,2.17
2023-01-08T12:13:48.306Z,2.20
2023-01-08T12:16:52.744Z,2.10
2023-01-08T12:20:15.291Z,2.00
2023-01-08T12:22:56.640Z,2.45
2023-01-08T12:25:49.399Z,4.05
2023-01-08T12:28:42.485Z,2.60
2023-01-08T12:31:48.746Z,3.10
2023-01-08T12:34:50.897Z,1.67
2023-01-08T12:37:36.071Z,1.60
2023-01-08T12:40:20.647Z,2.42
2023-01-08T12:43:00.102Z,2.30
2023-01-08T12:45:40.544Z,1.92
2023-01-08T12:48:15.580Z,2.05
2023-01-08T12:51:20.959Z,2.00
2023-01-08T12:54:33.599Z,3.28
2023-01-08T12:57:14.520Z,2.03
2023-01-08T13:00:12.665Z,1.85
2023-01-08T13:03:02.480Z,1.77
2023-01-08T13:05:38.208Z,2.40
2023-01-08T13:08:34.589Z,2.80
2023-01-08T13:11:02.875Z,2.38
2023-01-08T13:13:44.976Z,2.30
2023-01-08T13:16:12.050Z,3.30
2023-01-08T13:18:39.372Z,2.30
2023-01-08T13:21:11.723Z,2.80
2023-01-08T13:23:38.872Z,1.90
2023-01-08T13:26:07.545Z,1.98
2023-01-08T13:28:37.684Z,1.90
2023-01-08T13:31:21.168Z,1.83
2023-01-08T13:33:52.533Z,2.38
2023-01-08T13:36:29.138Z,2.03
2023-01-08T13:39:11.355Z,2.03
2023-01-08T13:41:56.234Z,1.70
2023-01-08T13:44:47.024Z,1.42
2023-01-08T13:47:42.519Z,1.70
2023-01-08T13:50:25.879Z,1.98
2023-01-08T13:53:02.072Z,1.92
2023-01-08T13:55:35.512Z,2.03
2023-01-08T13:58:18.062Z,1.80
2023-01-08T14:00:49.381Z,1.63
2023-01-08T14:03:35.866Z,1.73
2023-01-08T14:06:17.954Z,1.60
2023-01-08T14:08:59.185Z,1.77
2023-01-08T14:11:43.116Z,2.10
2023-01-08T14:14:15.057Z,2.30
2023-01-08T14:16:42.687Z,2.20
2023-01-08T14:19:24.641Z,2.17
2023-01-08T14:21:57.735Z,2.40
2023-01-08T14:24:26.097Z,2.17
2023-01-08T14:26:57.470Z,1.80
2023-01-08T14:29:29.841Z,2.70
2023-01-08T14:32:00.271Z,3.53
2023-01-08T14:34:31.801Z,3.08
2023-01-08T14:36:59.007Z,2.17
2023-01-08T14:39:38.953Z,2.92
2023-01-08T14:42:40.936Z,2.80
2023-01-08T14:45:24.428Z,2.50
2023-01-08T14:47:58.353Z,3.20
2023-01-08T14:50:38.702Z,3.30
2023-01-08T14:53:21.729Z,2.78
2023-01-08T14:55:52.436Z,3.17
2023-01-08T14:58:30.731Z,2.72
2023-01-08T15:01:02.965Z,3.97
2023-01-08T15:03:38.062Z,3.40
2023-01-08T15:06:07.451Z,3.10
2023-01-08T15:08:44.693Z,3.13
2023-01-08T15:11:31.245Z,4.78
2023-01-08T15:14:00.431Z,2.90
2023-01-08T15:16:32.763Z,3.10
2023-01-08T15:19:11.714Z,3.35
2023-01-08T15:21:45.419Z,3.85
2023-01-08T15:24:25.534Z,3.00
2023-01-08T15:26:53.870Z,3.22
2023-01-08T15:29:37.097Z,3.28
2023-01-08T15:34:42.539Z,2.78
2023-01-08T15:37:10.158Z,3.45
2023-01-08T15:39:37.496Z,3.30
2023-01-08T15:42:48.820Z,3.88
2023-01-08T15:45:21.311Z,4.70
2023-01-08T15:47:48.620Z,5.03
2023-01-08T15:50:15.863Z,4.40
2023-01-08T15:52:43.798Z,5.05
2023-01-08T15:55:23.276Z,4.93
2023-01-08T15:57:50.933Z,5.60
2023-01-08T16:00:20.039Z,5.00
2023-01-08T16:02:50.072Z,4.60
2023-01-08T16:05:20.166Z,3.33
2023-01-08T16:07:47.694Z,13.77
2023-01-08T16:10:16.983Z,7.10
2023-01-08T16:12:44.826Z,6.90
2023-01-08T16:15:13.523Z,5.72
2023-01-08T16:17:41.908Z,6.05
2023-01-08T16:20:11.583Z,6.50
2023-01-08T16:22:39.313Z,5.90
2023-01-08T16:25:07.753Z,5.47
2023-01-08T16:27:36.053Z,6.13
2023-01-08T16:30:04.045Z,6.05
2023-01-08T16:32:31.236Z,6.80
2023-01-08T16:34:58.373Z,8.02
2023-01-08T16:37:25.488Z,7.15
2023-01-08T16:39:52.679Z,5.00
2023-01-08T16:42:19.825Z,5.95
2023-01-08T16:44:47.018Z,6.65
2023-01-08T16:47:14.338Z,7.13
2023-01-08T16:49:41.840Z,5.30
2023-01-08T16:52:09.861Z,7.10
2023-01-08T16:54:37.426Z,7.93
2023-01-08T16:57:04.814Z,7.20
2023-01-08T16:59:33.044Z,6.18
2023-01-08T17:02:00.771Z,5.70
2023-01-08T17:04:31.623Z,5.50
2023-01-08T17:06:58.789Z,5.10
2023-01-08T17:09:25.989Z,4.70
2023-01-08T17:11:53.167Z,4.32
2023-01-08T17:14:20.529Z,7.30
2023-01-08T17:16:49.065Z,10.27
2023-01-08T17:19:17.343Z,8.77
2023-01-08T17:21:45.853Z,8.07
2023-01-08T17:24:13.145Z,8.63
2023-01-08T17:26:40.307Z,8.68
2023-01-08T17:29:07.550Z,6.63
2023-01-08T17:31:39.756Z,6.50
2023-01-08T17:34:12.339Z,4.80
2023-01-08T17:36:39.519Z,6.25
2023-01-08T17:39:06.983Z,7.32
2023-01-08T17:41:54.704Z,14.52
2023-01-08T17:44:22.438Z,6.00
2023-01-08T17:46:49.568Z,5.88
2023-01-08T17:49:17.804Z,5.03
2023-01-08T17:51:45.834Z,5.00
2023-01-08T17:54:15.941Z,4.55
2023-01-08T17:56:44.137Z,4.93
2023-01-08T17:59:17.512Z,3.67
2023-01-08T18:01:45.322Z,4.03
2023-01-08T18:04:14.192Z,5.57
2023-01-08T18:06:42.899Z,5.07
2023-01-08T18:09:12.315Z,5.50
2023-01-08T18:11:41.864Z,5.75
2023-01-08T18:14:12.739Z,5.90
2023-01-08T18:16:45.209Z,5.60
2023-01-08T18:19:15.612Z,5.55
2023-01-08T18:21:44.435Z,5.20
2023-01-08T18:24:12.688Z,6.10
2023-01-08T18:26:40.610Z,3.88
2023-01-08T18:29:08.173Z,4.00
2023-01-08T18:31:35.512Z,4.50
2023-01-08T18:34:03.768Z,5.57
2023-01-08T18:36:31.032Z,7.60
2023-01-08T18:38:58.337Z,7.80
2023-01-08T18:41:43.937Z,10.68
2023-01-08T18:44:11.161Z,12.25
2023-01-08T18:46:38.766Z,8.18
2023-01-08T18:49:06.409Z,7.85
2023-01-08T18:51:33.686Z,6.97
2023-01-08T18:54:00.962Z,5.68
2023-01-08T18:56:33.509Z,5.70
2023-01-08T18:59:03.804Z,4.60
2023-01-08T19:01:32.491Z,5.95
2023-01-08T19:03:59.643Z,3.28
2023-01-08T19:06:27.185Z,3.20
2023-01-08T19:08:56.284Z,2.58
2023-01-08T19:11:25.412Z,2.30
2023-01-08T19:13:57.444Z,2.42
2023-01-08T19:16:25.089Z,2.40
2023-01-08T19:18:52.689Z,6.93
2023-01-08T19:21:20.179Z,5.43
2023-01-08T19:23:48.067Z,7.18
2023-01-08T19:26:16.282Z,7.93
2023-01-08T19:28:44.121Z,25.38
2023-01-08T19:31:14.983Z,15.80
2023-01-08T19:33:42.570Z,8.60
2023-01-08T19:36:15.830Z,7.15
2023-01-08T19:38:44.369Z,8.80
2023-01-08T19:41:31.349Z,10.60
2023-01-08T19:43:59.341Z,11.50
2023-01-08T19:46:27.371Z,7.57
2023-01-08T19:48:59.087Z,5.88
2023-01-08T19:51:27.912Z,5.38
2023-01-08T19:53:57.264Z,5.93
2023-01-08T19:56:24.580Z,5.97
2023-01-08T19:58:51.708Z,6.22
2023-01-08T20:01:22.968Z,5.40
2023-01-08T20:03:50.772Z,4.50
2023-01-08T20:06:22.359Z,5.80
2023-01-08T20:08:56.320Z,6.70
2023-01-08T20:11:24.279Z,7.78
2023-01-08T20:13:52.318Z,8.23
2023-01-08T20:16:21.443Z,8.35
2023-01-08T20:18:48.848Z,8.05
2023-01-08T20:21:23.896Z,8.00
2023-01-08T20:24:03.116Z,7.32
2023-01-08T20:26:31.767Z,8.57
2023-01-08T20:28:59.249Z,10.95
2023-01-08T20:31:30.526Z,11.82
2023-01-08T20:33:59.977Z,8.95
2023-01-08T20:36:31.019Z,10.13
2023-01-08T20:39:08.309Z,9.80
2023-01-08T20:41:35.437Z,12.90
2023-01-08T20:44:08.130Z,11.20
2023-01-08T20:46:37.792Z,10.98
2023-01-08T20:49:10.620Z,9.80
2023-01-08T20:51:44.105Z,7.85
2023-01-08T20:54:15.692Z,8.95
2023-01-08T20:56:44.521Z,10.60
2023-01-08T20:59:11.672Z,6.40
2023-01-08T21:01:38.848Z,4.95
2023-01-08T21:04:08.692Z,6.30
2023-01-08T21:06:36.405Z,5.28
2023-01-08T21:09:10.138Z,5.18
2023-01-08T21:11:40.752Z,4.50
2023-01-08T21:14:08.741Z,4.88
2023-01-08T21:16:37.108Z,6.88
2023-01-08T21:19:04.384Z,8.90
2023-01-08T21:21:35.153Z,8.52
2023-01-08T21:24:05.383Z,6.80
2023-01-08T21:26:33.851Z,5.97
2023-01-08T21:29:06.197Z,6.68
2023-01-08T21:31:35.644Z,5.70
2023-01-08T21:34:04.603Z,4.78
2023-01-08T21:36:32.973Z,4.63
2023-01-08T21:39:01.459Z,5.10
2023-01-08T21:41:49.011Z,4.95
2023-01-08T21:44:44.858Z,6.70
2023-01-08T21:47:17.908Z,7.55
2023-01-08T21:49:45.923Z,9.35
2023-01-08T21:52:32.080Z,7.22
2023-01-08T21:54:59.364Z,5.28
2023-01-08T21:57:28.029Z,5.30
2023-01-08T21:59:56.750Z,5.18
2023-01-08T22:02:24.733Z,4.65
2023-01-08T22:04:55.896Z,4.40
2023-01-08T22:07:24.763Z,4.75
2023-01-08T22:09:52.332Z,5.78
2023-01-08T22:12:20.324Z,5.20
2023-01-08T22:14:47.496Z,4.00
2023-01-08T22:17:15.179Z,3.92
2023-01-08T22:19:42.395Z,3.97
2023-01-08T22:22:11.102Z,3.97
2023-01-08T22:24:40.222Z,3.92
2023-01-08T22:27:08.665Z,3.67
2023-01-08T22:29:37.552Z,3.95
2023-01-08T22:32:05.446Z,4.03
2023-01-08T22:34:34.748Z,3.78
2023-01-08T22:37:02.577Z,4.63
2023-01-08T22:39:29.886Z,4.50
2023-01-08T22:41:57.424Z,4.45
2023-01-08T22:44:24.679Z,4.03
2023-01-08T22:46:51.796Z,4.15
2023-01-08T22:49:19.159Z,3.80
2023-01-08T22:51:46.279Z,3.67
2023-01-08T22:54:13.702Z,3.50
2023-01-08T22:56:40.938Z,3.30
2023-01-08T22:59:08.093Z,3.10
2023-01-08T23:01:35.501Z,2.67
2023-01-08T23:04:03.579Z,2.63
2023-01-08T23:06:31.681Z,2.80
2023-01-08T23:08:59.921Z,2.63
2023-01-08T23:11:27.836Z,3.55
2023-01-08T23:13:55.563Z,2.80
2023-01-08T23:16:25.160Z,2.50
2023-01-08T23:18:54.663Z,2.33
2023-01-08T23:21:26.120Z,2.50
2023-01-08T23:23:53.340Z,2.70
2023-01-08T23:26:24.991Z,2.42
2023-01-08T23:28:54.106Z,2.67
2023-01-08T23:31:25.971Z,2.83
2023-01-08T23:33:54.052Z,2.45
2023-01-08T23:36:22.292Z,2.30
2023-01-08T23:38:52.663Z,2.72
2023-01-08T23:41:23.103Z,2.30
2023-01-08T23:43:50.357Z,2.22
2023-01-08T23:46:18.161Z,2.42
2023-01-08T23:48:45.315Z,2.58
2023-01-08T23:51:12.615Z,2.85
2023-01-08T23:53:39.750Z,3.70
2023-01-08T23:56:07.609Z,3.33
2023-01-08T23:58:35.826Z,3.30
